Time;durP1;ratioP1;P1;durP2;ratioP2;P2;SDS_P1;SDS_P2;PMS_P1;PMS_P2;Temp;Humidity;BMP_temperature;BMP_pressure;BME280_temperature;BME280_humidity;BME280_pressure;Samples;Min_cycle;Max_cycle;Signal;HPM_P1;HPM_P2
2022/08/12 00:44:39;;;;;;;;;;;15.90;73.10;;;;;;4943873;28;20064;-85
2022/08/12 00:47:05;;;;;;;;;;;15.90;73.10;;;;;;4933961;29;20290;-85
2022/08/12 00:49:30;;;;;;;;;;;15.90;73.10;;;;;;4950261;29;19915;-85
2022/08/12 00:52:06;;;;;;;;;;;15.90;73.10;;;;;;4930953;29;19935;-85
2022/08/12 00:54:35;;;;;;;;;;;15.90;72.90;;;;;;4930558;29;19946;-84
2022/08/12 00:57:04;;;;;;;;;;;15.90;73.50;;;;;;4929466;29;19915;-84
2022/08/12 00:59:30;;;;;;;;;;;15.90;74.60;;;;;;4946457;28;19925;-84
2022/08/12 01:01:59;;;;;;;;;;;15.80;74.40;;;;;;4925119;29;19921;-86
2022/08/12 01:12:41;;;;;;;;;;;15.60;74.40;;;;;;4935684;29;19918;-84
2022/08/12 01:15:06;;;;;;;;;;;15.50;74.40;;;;;;4937877;28;20438;-85
2022/08/12 01:17:33;;;;;;;;;;;15.50;74.40;;;;;;4932925;29;20017;-84
2022/08/12 01:20:03;;;;;;;;;;;15.50;74.60;;;;;;4918006;29;20363;-85
2022/08/12 01:22:53;;;;;;;;;;;15.40;74.90;;;;;;4932814;29;19957;-85
2022/08/12 01:25:19;;;;;;;;;;;15.40;75.00;;;;;;4915789;29;19933;-84
2022/08/12 01:27:48;;;;;;;;;;;15.40;75.00;;;;;;4932360;29;19917;-84
2022/08/12 01:30:15;;;;;;;;;;;15.40;74.60;;;;;;4948270;28;19945;-84
2022/08/12 01:32:41;;;;;;;;;;;15.40;74.60;;;;;;4909029;29;19915;-85
2022/08/12 01:35:09;;;;;;;;;;;15.40;74.70;;;;;;4928712;29;20285;-85
2022/08/12 01:37:39;;;;;;;;;;;15.30;75.40;;;;;;4913868;29;19915;-84
2022/08/12 01:40:07;;;;;;;;;;;15.30;75.40;;;;;;4931241;29;20009;-85
2022/08/12 01:42:40;;;;;;;;;;;15.30;75.50;;;;;;4944799;28;19911;-84
2022/08/12 01:45:06;;;;;;;;;;;15.30;76.10;;;;;;4928500;29;19911;-85
2022/08/12 01:47:50;;;;;;;;;;;15.20;75.90;;;;;;4912218;29;20010;-85
2022/08/12 01:50:22;;;;;;;;;;;15.20;75.60;;;;;;4917351;29;19938;-85
2022/08/12 01:52:51;;;;;;;;;;;15.10;75.70;;;;;;4948000;28;19922;-86
2022/08/12 01:55:21;;;;;;;;;;;15.10;75.50;;;;;;4948864;28;20020;-84
2022/08/12 01:57:59;;;;;;;;;;;15.00;76.20;;;;;;4917439;29;20012;-85
2022/08/12 02:00:28;;;;;;;;;;;15.00;76.30;;;;;;4916957;29;19915;-84
2022/08/12 02:03:13;;;;;;;;;;;15.00;76.20;;;;;;4916753;29;20003;-85
2022/08/12 02:11:28;;;;;;;;;;;14.90;76.90;;;;;;4944746;28;20734;-84
2022/08/12 02:13:56;;;;;;;;;;;14.80;76.70;;;;;;4901944;29;20006;-84
2022/08/12 02:16:22;;;;;;;;;;;14.80;77.50;;;;;;4925745;29;19914;-85
2022/08/12 02:19:02;;;;;;;;;;;14.70;77.80;;;;;;4930007;29;19918;-84
2022/08/12 02:21:34;;;;;;;;;;;14.70;77.80;;;;;;4924844;29;19962;-82
2022/08/12 02:24:00;;;;;;;;;;;14.70;78.30;;;;;;4928975;29;20037;-85
2022/08/12 02:26:29;;;;;;;;;;;14.60;77.70;;;;;;4920739;29;20006;-85
2022/08/12 02:28:54;;;;;;;;;;;14.60;77.60;;;;;;4928930;29;19915;-84
2022/08/12 02:31:20;;;;;;;;;;;14.60;77.40;;;;;;4946262;29;19911;-81
2022/08/12 02:33:46;;;;;;;;;;;14.60;77.30;;;;;;4914334;29;19918;-86
2022/08/12 02:36:14;;;;;;;;;;;14.60;77.60;;;;;;4947826;28;19966;-85
2022/08/12 02:38:41;;;;;;;;;;;14.60;77.80;;;;;;4913706;29;19911;-85
2022/08/12 02:41:08;;;;;;;;;;;14.60;78.30;;;;;;4925045;29;19915;-84
2022/08/12 02:43:34;;;;;;;;;;;14.60;78.00;;;;;;4947385;29;19915;-82
2022/08/12 02:46:03;;;;;;;;;;;14.60;78.40;;;;;;4925588;29;19910;-85
2022/08/12 02:48:41;;;;;;;;;;;14.60;78.60;;;;;;4916304;29;20509;-85
2022/08/12 02:51:08;;;;;;;;;;;14.50;78.80;;;;;;4927827;29;20400;-84
2022/08/12 02:53:35;;;;;;;;;;;14.40;78.80;;;;;;4931008;29;20376;-85
2022/08/12 02:56:01;;;;;;;;;;;14.40;78.80;;;;;;4918059;29;19966;-84
2022/08/12 02:58:30;;;;;;;;;;;14.40;79.00;;;;;;4902622;29;20402;-84
2022/08/12 03:00:56;;;;;;;;;;;14.40;79.60;;;;;;4918312;29;19907;-85
2022/08/12 03:03:25;;;;;;;;;;;14.30;79.50;;;;;;4929658;29;20403;-84
2022/08/12 03:05:58;;;;;;;;;;;14.30;80.00;;;;;;4937352;29;19923;-85
2022/08/12 03:08:28;;;;;;;;;;;14.20;81.10;;;;;;4912696;29;19915;-84
2022/08/12 03:10:57;;;;;;;;;;;14.10;80.90;;;;;;4926478;29;19921;-85
2022/08/12 03:13:27;;;;;;;;;;;14.10;81.10;;;;;;4908086;29;20187;-85
2022/08/12 03:15:54;;;;;;;;;;;14.00;80.60;;;;;;4924642;29;19914;-84
2022/08/12 03:18:21;;;;;;;;;;;14.00;80.50;;;;;;4916364;29;20001;-84
2022/08/12 03:20:47;;;;;;;;;;;14.00;81.40;;;;;;4931725;29;20267;-85
2022/08/12 03:23:14;;;;;;;;;;;13.90;82.10;;;;;;4942790;28;20068;-84
2022/08/12 03:25:41;;;;;;;;;;;13.80;81.70;;;;;;4934649;29;19918;-85
2022/08/12 03:28:11;;;;;;;;;;;13.90;82.20;;;;;;4935451;29;19915;-85
2022/08/12 03:30:38;;;;;;;;;;;13.80;82.10;;;;;;4925819;29;19910;-85
2022/08/12 03:33:04;;;;;;;;;;;13.80;82.20;;;;;;4921582;29;19911;-85
2022/08/12 03:35:32;;;;;;;;;;;13.80;82.20;;;;;;4936302;29;20272;-85
2022/08/12 03:37:59;;;;;;;;;;;13.90;82.40;;;;;;4939133;29;20017;-85
2022/08/12 04:00:25;;;;;;;;;;;13.90;83.10;;;;;;4933775;29;19969;-85
2022/08/12 04:03:04;;;;;;;;;;;13.90;83.10;;;;;;4919936;29;19962;-84
2022/08/12 04:05:31;;;;;;;;;;;13.90;83.10;;;;;;4927607;29;19929;-85
2022/08/12 04:07:58;;;;;;;;;;;13.80;83.30;;;;;;4918724;29;19970;-84
2022/08/12 04:13:15;;;;;;;;;;;13.80;83.30;;;;;;4925117;29;19915;-84
2022/08/12 04:13:20;;;;;;;;;;;13.80;83.60;;;;;;4951136;28;19914;-84
2022/08/12 04:15:46;;;;;;;;;;;13.80;84.20;;;;;;4936959;29;20058;-84
2022/08/12 04:18:12;;;;;;;;;;;13.80;84.10;;;;;;4933721;29;19918;-84
2022/08/12 04:20:41;;;;;;;;;;;13.80;84.10;;;;;;4921919;29;19919;-84
2022/08/12 04:23:08;;;;;;;;;;;13.80;83.80;;;;;;4933821;29;19915;-84
2022/08/12 04:25:35;;;;;;;;;;;13.80;84.00;;;;;;4921826;29;19917;-84
2022/08/12 04:28:00;;;;;;;;;;;13.80;84.10;;;;;;4937556;29;19921;-84
2022/08/12 04:30:26;;;;;;;;;;;13.80;84.40;;;;;;4928096;29;20025;-84
2022/08/12 04:32:52;;;;;;;;;;;13.80;84.20;;;;;;4919907;29;19961;-84
2022/08/12 04:35:19;;;;;;;;;;;13.80;84.30;;;;;;4932535;29;19957;-84
2022/08/12 04:37:45;;;;;;;;;;;13.90;84.00;;;;;;4931550;29;19915;-84
2022/08/12 04:40:12;;;;;;;;;;;13.90;84.20;;;;;;4931311;29;19915;-84
2022/08/12 04:42:37;;;;;;;;;;;13.90;84.20;;;;;;4918239;29;20544;-84
2022/08/12 04:45:03;;;;;;;;;;;13.90;84.80;;;;;;4915182;29;20006;-85
2022/08/12 04:47:29;;;;;;;;;;;13.90;85.10;;;;;;4933632;29;19910;-84
2022/08/12 04:49:55;;;;;;;;;;;14.00;86.00;;;;;;4950011;28;19968;-84
2022/08/12 04:52:20;;;;;;;;;;;14.00;85.70;;;;;;4930494;29;20439;-84
2022/08/12 04:54:46;;;;;;;;;;;14.00;85.60;;;;;;4914648;29;19939;-83
2022/08/12 04:57:12;;;;;;;;;;;14.00;86.10;;;;;;4918588;29;19939;-85
2022/08/12 04:59:37;;;;;;;;;;;14.00;85.70;;;;;;4933342;29;20447;-84
2022/08/12 05:02:03;;;;;;;;;;;14.00;85.80;;;;;;4929841;29;20001;-84
2022/08/12 05:04:29;;;;;;;;;;;14.10;85.60;;;;;;4921986;29;19915;-84
2022/08/12 05:06:55;;;;;;;;;;;14.10;85.50;;;;;;4918093;29;19918;-84
2022/08/12 05:09:20;;;;;;;;;;;14.20;86.10;;;;;;4933921;29;19915;-83
2022/08/12 05:11:48;;;;;;;;;;;14.20;86.60;;;;;;4924598;29;19915;-84
2022/08/12 05:14:14;;;;;;;;;;;14.30;86.20;;;;;;4914150;29;19918;-84
2022/08/12 05:16:40;;;;;;;;;;;14.40;86.40;;;;;;4929340;29;20730;-84
2022/08/12 05:19:06;;;;;;;;;;;14.40;85.80;;;;;;4916681;29;20360;-84
2022/08/12 05:21:32;;;;;;;;;;;14.50;85.20;;;;;;4916390;29;20283;-84
2022/08/12 05:23:58;;;;;;;;;;;14.60;84.80;;;;;;4948959;28;20477;-84
2022/08/12 05:26:23;;;;;;;;;;;14.70;85.10;;;;;;4933521;29;19906;-84
2022/08/12 05:28:52;;;;;;;;;;;14.80;85.30;;;;;;4921314;29;19981;-85
2022/08/12 05:31:19;;;;;;;;;;;14.90;85.00;;;;;;4912055;29;20023;-84
2022/08/12 05:33:46;;;;;;;;;;;15.10;85.40;;;;;;4913884;29;19970;-85
2022/08/12 05:36:13;;;;;;;;;;;15.20;84.50;;;;;;4939430;29;19918;-84
2022/08/12 05:38:58;;;;;;;;;;;15.40;84.10;;;;;;4929548;29;19915;-85
2022/08/12 05:41:24;;;;;;;;;;;15.60;83.20;;;;;;4923848;29;19918;-83
2022/08/12 05:44:01;;;;;;;;;;;16.00;81.60;;;;;;4938440;28;19958;-85
2022/08/12 05:46:27;;;;;;;;;;;16.40;80.30;;;;;;4904144;29;20338;-84
2022/08/12 05:48:53;;;;;;;;;;;16.90;77.20;;;;;;4932751;29;20383;-85
2022/08/12 05:51:23;;;;;;;;;;;17.50;74.70;;;;;;4931726;29;20359;-82
2022/08/12 05:53:52;;;;;;;;;;;18.00;72.50;;;;;;4916675;29;19914;-83
2022/08/12 05:56:22;;;;;;;;;;;18.50;70.00;;;;;;4922078;29;19915;-82
2022/08/12 05:58:50;;;;;;;;;;;19.10;67.50;;;;;;4915565;29;19953;-83
2022/08/12 06:01:16;;;;;;;;;;;19.60;65.80;;;;;;4944319;29;20323;-82
2022/08/12 06:03:41;;;;;;;;;;;20.00;64.10;;;;;;4929802;29;20010;-82
2022/08/12 06:06:08;;;;;;;;;;;20.50;62.50;;;;;;4925662;29;19946;-82
2022/08/12 06:08:34;;;;;;;;;;;20.90;61.60;;;;;;4928811;29;19911;-82
2022/08/12 06:11:01;;;;;;;;;;;21.30;61.00;;;;;;4918096;29;19990;-83
2022/08/12 06:13:28;;;;;;;;;;;21.70;60.20;;;;;;4915225;29;19919;-83
2022/08/12 06:15:53;;;;;;;;;;;22.10;58.60;;;;;;4928993;29;20260;-84
2022/08/12 06:18:19;;;;;;;;;;;22.50;57.50;;;;;;4935729;29;19915;-82
2022/08/12 06:20:57;;;;;;;;;;;22.80;56.60;;;;;;4919575;29;20607;-83
2022/08/12 06:23:29;;;;;;;;;;;23.00;55.50;;;;;;4918526;29;20210;-82
2022/08/12 06:25:55;;;;;;;;;;;23.30;54.80;;;;;;4915952;29;19919;-83
2022/08/12 06:28:21;;;;;;;;;;;23.50;54.30;;;;;;4932568;29;19958;-83
2022/08/12 06:30:47;;;;;;;;;;;23.60;54.20;;;;;;4916790;29;19918;-83
2022/08/12 06:33:13;;;;;;;;;;;23.90;53.70;;;;;;4931938;29;19990;-83
2022/08/12 06:35:42;;;;;;;;;;;24.20;53.60;;;;;;4915846;29;19970;-84
2022/08/12 06:38:16;;;;;;;;;;;24.50;53.60;;;;;;4921699;29;20027;-84
2022/08/12 06:43:26;;;;;;;;;;;25.30;51.20;;;;;;4942603;28;20006;-84
2022/08/12 06:45:52;;;;;;;;;;;25.40;51.70;;;;;;4935821;28;19938;-84
2022/08/12 06:48:18;;;;;;;;;;;25.50;51.30;;;;;;4928744;29;19911;-84
2022/08/12 06:50:44;;;;;;;;;;;25.90;50.40;;;;;;4935695;29;19915;-83
2022/08/12 06:53:10;;;;;;;;;;;26.30;49.30;;;;;;4908462;29;19911;-83
2022/08/12 06:55:38;;;;;;;;;;;26.80;48.70;;;;;;4912707;29;20476;-85
2022/08/12 06:58:04;;;;;;;;;;;27.20;48.20;;;;;;4947319;28;19911;-84
2022/08/12 07:00:32;;;;;;;;;;;27.30;46.70;;;;;;4915899;29;19965;-84
2022/08/12 07:02:58;;;;;;;;;;;27.50;46.60;;;;;;4915618;29;19914;-84
2022/08/12 07:05:24;;;;;;;;;;;27.80;46.10;;;;;;4943455;28;19942;-83
2022/08/12 07:08:00;;;;;;;;;;;28.10;45.90;;;;;;4916518;29;19958;-85
2022/08/12 07:10:26;;;;;;;;;;;28.30;44.40;;;;;;4931794;29;19942;-84
2022/08/12 07:12:53;;;;;;;;;;;28.20;44.80;;;;;;4931605;29;19938;-83
2022/08/12 07:15:21;;;;;;;;;;;28.20;45.20;;;;;;4945608;28;20332;-82
2022/08/12 07:17:46;;;;;;;;;;;28.40;45.40;;;;;;4915818;29;19911;-83
2022/08/12 07:20:12;;;;;;;;;;;28.60;44.50;;;;;;4947266;29;19915;-85
2022/08/12 07:22:38;;;;;;;;;;;28.90;44.60;;;;;;4905221;29;19911;-84
2022/08/12 07:27:52;;;;;;;;;;;28.70;44.00;;;;;;4944078;29;19970;-83
2022/08/12 07:30:17;;;;;;;;;;;28.70;44.60;;;;;;4897724;29;19911;-83
2022/08/12 07:32:46;;;;;;;;;;;28.60;43.90;;;;;;4946662;28;19915;-84
2022/08/12 07:35:11;;;;;;;;;;;28.20;44.30;;;;;;4927768;29;19918;-83
2022/08/12 07:37:43;;;;;;;;;;;27.90;44.60;;;;;;4930930;29;19914;-84
2022/08/12 07:40:10;;;;;;;;;;;27.90;45.90;;;;;;4930231;29;19914;-84
2022/08/12 07:42:37;;;;;;;;;;;27.90;46.60;;;;;;4929691;29;20449;-85
2022/08/12 07:45:03;;;;;;;;;;;27.90;45.70;;;;;;4929077;29;19986;-83
2022/08/12 07:47:29;;;;;;;;;;;28.20;45.40;;;;;;4931494;29;20456;-85
2022/08/12 07:49:55;;;;;;;;;;;28.20;43.90;;;;;;4932117;29;19949;-84
2022/08/12 07:52:21;;;;;;;;;;;28.20;45.10;;;;;;4944381;28;19921;-85
2022/08/12 07:54:47;;;;;;;;;;;27.90;45.50;;;;;;4934649;29;19997;-84
2022/08/12 07:57:13;;;;;;;;;;;27.90;45.10;;;;;;4909734;29;19946;-84
2022/08/12 07:59:39;;;;;;;;;;;27.80;45.00;;;;;;4928501;29;19959;-84
2022/08/12 08:02:08;;;;;;;;;;;27.60;44.00;;;;;;4940668;29;19922;-83
2022/08/12 08:07:19;;;;;;;;;;;27.20;45.60;;;;;;4947579;28;19910;-83
2022/08/12 08:09:44;;;;;;;;;;;27.10;45.30;;;;;;4951029;28;19918;-85
2022/08/12 08:14:55;;;;;;;;;;;26.80;46.30;;;;;;4933927;29;20602;-82
2022/08/12 08:17:21;;;;;;;;;;;26.50;45.60;;;;;;4934256;29;19982;-83
2022/08/12 08:19:51;;;;;;;;;;;26.50;46.70;;;;;;4914767;29;19915;-83
2022/08/12 08:22:21;;;;;;;;;;;26.50;46.70;;;;;;4930903;29;19917;-82
2022/08/12 08:24:50;;;;;;;;;;;26.50;46.20;;;;;;4933160;29;19986;-83
2022/08/12 08:27:15;;;;;;;;;;;26.30;46.40;;;;;;4931303;29;19915;-83
2022/08/12 08:29:44;;;;;;;;;;;26.10;47.00;;;;;;4937485;28;19910;-81
2022/08/12 08:32:10;;;;;;;;;;;26.00;47.10;;;;;;4929245;29;19923;-83
2022/08/12 08:34:36;;;;;;;;;;;25.80;46.40;;;;;;4933071;29;19926;-84
2022/08/12 08:37:02;;;;;;;;;;;25.70;48.10;;;;;;4933265;29;19919;-83
2022/08/12 08:39:30;;;;;;;;;;;25.60;47.20;;;;;;4932899;29;19915;-83
2022/08/12 08:44:40;;;;;;;;;;;25.50;48.40;;;;;;4944528;28;19999;-83
2022/08/12 08:47:07;;;;;;;;;;;25.50;47.20;;;;;;4950786;29;19918;-83
2022/08/12 08:49:36;;;;;;;;;;;25.50;48.70;;;;;;4949534;28;19914;-82
2022/08/12 08:52:06;;;;;;;;;;;25.40;47.00;;;;;;4919123;29;19910;-83
2022/08/12 08:54:32;;;;;;;;;;;25.40;47.30;;;;;;4929982;29;20029;-81
2022/08/12 08:57:00;;;;;;;;;;;25.40;49.10;;;;;;4928297;29;19922;-83
2022/08/12 08:59:26;;;;;;;;;;;25.40;47.40;;;;;;4917623;29;19935;-83
2022/08/12 09:01:51;;;;;;;;;;;25.50;46.90;;;;;;4948893;29;19915;-83
2022/08/12 09:04:19;;;;;;;;;;;25.50;48.00;;;;;;4915811;29;19933;-84
2022/08/12 09:06:46;;;;;;;;;;;25.40;46.70;;;;;;4920901;29;20008;-83
2022/08/12 09:09:13;;;;;;;;;;;25.30;47.50;;;;;;4929903;29;19907;-82
2022/08/12 09:14:23;;;;;;;;;;;25.30;47.30;;;;;;4923979;29;19947;-82
2022/08/12 09:16:49;;;;;;;;;;;25.30;47.30;;;;;;4943532;29;19914;-83
2022/08/12 09:19:16;;;;;;;;;;;25.30;48.10;;;;;;4935503;29;19919;-83
2022/08/12 09:21:46;;;;;;;;;;;25.20;47.50;;;;;;4932974;29;19910;-82
2022/08/12 09:24:14;;;;;;;;;;;25.10;47.70;;;;;;4948669;28;19911;-83
2022/08/12 09:26:40;;;;;;;;;;;25.10;47.90;;;;;;4920119;29;19923;-84
2022/08/12 09:29:06;;;;;;;;;;;25.20;47.70;;;;;;4915561;29;20015;-84
2022/08/12 09:31:34;;;;;;;;;;;25.30;48.10;;;;;;4942388;29;20035;-84
2022/08/12 09:33:59;;;;;;;;;;;25.50;48.90;;;;;;4930560;29;20498;-83
2022/08/12 09:36:25;;;;;;;;;;;25.50;46.70;;;;;;4947227;29;20021;-83
2022/08/12 09:38:51;;;;;;;;;;;25.60;47.60;;;;;;4945781;28;19954;-82
2022/08/12 09:41:16;;;;;;;;;;;25.60;47.90;;;;;;4932207;29;20300;-83
2022/08/12 09:46:27;;;;;;;;;;;25.50;46.40;;;;;;4926305;29;20001;-85
2022/08/12 09:48:52;;;;;;;;;;;25.30;45.40;;;;;;4949944;28;19950;-83
2022/08/12 09:51:19;;;;;;;;;;;25.00;45.60;;;;;;4922045;29;19930;-83
2022/08/12 09:53:46;;;;;;;;;;;24.80;46.60;;;;;;4917289;29;20391;-85
2022/08/12 09:56:16;;;;;;;;;;;24.70;48.20;;;;;;4948054;29;19922;-85
2022/08/12 09:58:45;;;;;;;;;;;24.70;46.20;;;;;;4948296;29;19915;-85
2022/08/12 10:01:11;;;;;;;;;;;24.70;46.20;;;;;;4921799;29;19929;-85
2022/08/12 10:03:37;;;;;;;;;;;24.60;45.70;;;;;;4916543;29;19910;-82
2022/08/12 10:06:05;;;;;;;;;;;24.60;46.30;;;;;;4916565;29;19939;-85
2022/08/12 10:08:32;;;;;;;;;;;24.70;46.70;;;;;;4915753;29;19965;-85
2022/08/12 10:13:43;;;;;;;;;;;24.60;46.10;;;;;;4943517;28;19921;-85
2022/08/12 10:16:16;;;;;;;;;;;24.60;46.10;;;;;;4932184;29;20272;-84
2022/08/12 10:18:43;;;;;;;;;;;24.60;45.70;;;;;;4912723;29;19918;-84
2022/08/12 10:21:10;;;;;;;;;;;24.60;47.00;;;;;;4936833;29;19978;-84
2022/08/12 10:23:37;;;;;;;;;;;24.70;45.10;;;;;;4931901;29;20268;-84
2022/08/12 10:31:32;;;;;;;;;;;24.60;45.00;;;;;;4938419;28;20088;-84
2022/08/12 10:33:57;;;;;;;;;;;24.60;46.10;;;;;;4932483;29;20311;-84
2022/08/12 10:36:23;;;;;;;;;;;24.60;45.50;;;;;;4908577;29;19918;-83
2022/08/12 10:38:49;;;;;;;;;;;24.60;45.40;;;;;;4916215;29;19910;-85
2022/08/12 10:44:01;;;;;;;;;;;24.60;45.60;;;;;;4943865;28;19911;-84
2022/08/12 10:46:27;;;;;;;;;;;24.50;46.10;;;;;;4900247;29;19978;-83
2022/08/12 10:48:52;;;;;;;;;;;24.50;45.10;;;;;;4928622;29;19915;-85
2022/08/12 10:51:18;;;;;;;;;;;24.50;45.70;;;;;;4937289;29;19915;-84
2022/08/12 10:53:47;;;;;;;;;;;24.50;47.60;;;;;;4912894;29;19979;-85
2022/08/12 10:56:17;;;;;;;;;;;24.60;45.30;;;;;;4920468;29;19922;-85
2022/08/12 10:58:43;;;;;;;;;;;24.70;45.80;;;;;;4932479;28;19957;-85
2022/08/12 11:01:09;;;;;;;;;;;24.70;45.80;;;;;;4930772;29;20340;-86
2022/08/12 11:03:39;;;;;;;;;;;24.70;45.80;;;;;;4932197;29;20717;-84
2022/08/12 11:06:06;;;;;;;;;;;24.90;46.80;;;;;;4927548;29;19922;-85
2022/08/12 11:08:33;;;;;;;;;;;25.00;43.30;;;;;;4915216;29;19915;-86
2022/08/12 11:10:59;;;;;;;;;;;25.00;42.50;;;;;;4924305;29;19911;-86
2022/08/12 11:13:24;;;;;;;;;;;25.00;43.30;;;;;;4915673;29;19921;-85
2022/08/12 11:15:51;;;;;;;;;;;24.90;43.50;;;;;;4927408;29;19923;-84
2022/08/12 11:18:17;;;;;;;;;;;24.90;44.50;;;;;;4929191;29;19961;-85
2022/08/12 11:20:43;;;;;;;;;;;25.00;44.50;;;;;;4931152;29;19914;-84
2022/08/12 11:23:08;;;;;;;;;;;25.10;43.90;;;;;;4946362;28;19915;-84
2022/08/12 11:25:34;;;;;;;;;;;25.20;43.50;;;;;;4929643;29;19922;-85
2022/08/12 11:28:00;;;;;;;;;;;25.30;43.50;;;;;;4930782;29;19922;-83
2022/08/12 11:30:25;;;;;;;;;;;25.50;43.70;;;;;;4946168;28;20002;-87
2022/08/12 11:32:51;;;;;;;;;;;25.50;42.40;;;;;;4914060;29;19957;-85
2022/08/12 11:35:17;;;;;;;;;;;25.60;42.60;;;;;;4926514;29;20367;-86
2022/08/12 11:37:42;;;;;;;;;;;25.60;42.40;;;;;;4909716;29;19915;-85
2022/08/12 11:40:09;;;;;;;;;;;25.60;42.30;;;;;;4940106;29;19969;-86
2022/08/12 11:42:35;;;;;;;;;;;25.60;43.20;;;;;;4926778;29;19915;-85
2022/08/12 11:45:00;;;;;;;;;;;25.60;43.70;;;;;;4915518;29;20006;-84
2022/08/12 11:47:26;;;;;;;;;;;25.70;43.80;;;;;;4948544;28;19925;-84
2022/08/12 11:49:52;;;;;;;;;;;25.70;43.60;;;;;;4935437;29;20676;-83
2022/08/12 11:52:17;;;;;;;;;;;25.70;43.10;;;;;;4918388;29;19998;-85
2022/08/12 11:54:43;;;;;;;;;;;25.70;43.80;;;;;;4934713;29;19922;-84
2022/08/12 11:57:09;;;;;;;;;;;25.70;43.20;;;;;;4919288;29;19926;-83
2022/08/12 11:59:34;;;;;;;;;;;25.70;42.50;;;;;;4915701;29;19958;-86
2022/08/12 12:02:00;;;;;;;;;;;25.70;43.00;;;;;;4945977;29;19961;-83
2022/08/12 12:04:25;;;;;;;;;;;25.60;43.20;;;;;;4950557;28;20549;-84
2022/08/12 12:06:51;;;;;;;;;;;25.60;43.40;;;;;;4919074;29;19914;-85
2022/08/12 12:09:17;;;;;;;;;;;25.60;44.50;;;;;;4934443;29;19978;-85
2022/08/12 12:11:42;;;;;;;;;;;25.70;45.30;;;;;;4949620;28;19915;-84
2022/08/12 12:14:09;;;;;;;;;;;25.80;44.70;;;;;;4919335;29;20239;-84
2022/08/12 12:16:35;;;;;;;;;;;25.90;44.30;;;;;;4926082;29;20027;-84
2022/08/12 12:19:01;;;;;;;;;;;25.70;44.20;;;;;;4918881;29;19918;-85
2022/08/12 12:21:26;;;;;;;;;;;25.90;44.60;;;;;;4918695;29;19911;-84
2022/08/12 12:23:53;;;;;;;;;;;26.00;42.90;;;;;;4931400;29;19942;-84
2022/08/12 12:26:18;;;;;;;;;;;26.10;43.40;;;;;;4915527;29;20338;-84
2022/08/12 12:28:44;;;;;;;;;;;26.10;43.50;;;;;;4915208;29;19911;-86
2022/08/12 12:31:10;;;;;;;;;;;26.10;42.50;;;;;;4924641;29;20379;-86
2022/08/12 12:33:36;;;;;;;;;;;26.10;42.40;;;;;;4914642;29;19911;-85
2022/08/12 12:36:02;;;;;;;;;;;26.10;42.50;;;;;;4925901;29;19969;-85
2022/08/12 12:38:27;;;;;;;;;;;26.20;44.00;;;;;;4943996;28;20394;-86
2022/08/12 12:40:53;;;;;;;;;;;26.40;44.10;;;;;;4901609;29;19914;-85
2022/08/12 12:43:19;;;;;;;;;;;26.60;42.40;;;;;;4917686;29;19958;-88
2022/08/12 12:45:45;;;;;;;;;;;26.70;42.70;;;;;;4918349;29;19915;-86
2022/08/12 12:48:16;;;;;;;;;;;26.80;41.70;;;;;;4917459;29;20387;-84
2022/08/12 12:50:43;;;;;;;;;;;26.80;42.00;;;;;;4920912;29;19922;-84
2022/08/12 12:53:09;;;;;;;;;;;26.70;42.20;;;;;;4929146;29;20360;-85
2022/08/12 12:55:36;;;;;;;;;;;26.40;42.50;;;;;;4932420;29;19915;-83
2022/08/12 12:58:10;;;;;;;;;;;26.20;42.80;;;;;;4949899;28;19933;-84
2022/08/12 13:00:35;;;;;;;;;;;26.10;43.40;;;;;;4933258;29;20300;-83
2022/08/12 13:03:01;;;;;;;;;;;25.90;44.10;;;;;;4933324;29;19938;-84
2022/08/12 13:05:28;;;;;;;;;;;25.80;44.70;;;;;;4924789;29;19922;-83
2022/08/12 13:07:58;;;;;;;;;;;25.80;44.30;;;;;;4949531;28;19911;-84
2022/08/12 13:10:24;;;;;;;;;;;25.60;44.70;;;;;;4916925;29;20005;-86
2022/08/12 13:12:50;;;;;;;;;;;25.60;45.30;;;;;;4930837;29;19997;-84
2022/08/12 13:15:16;;;;;;;;;;;25.60;45.40;;;;;;4916506;29;19911;-85
2022/08/12 13:17:48;;;;;;;;;;;25.90;46.10;;;;;;4929788;29;19921;-85
2022/08/12 13:20:15;;;;;;;;;;;26.10;44.80;;;;;;4914198;29;20005;-85
2022/08/12 13:22:40;;;;;;;;;;;26.20;44.10;;;;;;4916497;29;19910;-83
2022/08/12 13:25:06;;;;;;;;;;;26.20;44.30;;;;;;4913247;29;19917;-84
2022/08/12 13:27:33;;;;;;;;;;;26.10;44.00;;;;;;4932189;29;19957;-84
2022/08/12 13:29:59;;;;;;;;;;;26.00;43.90;;;;;;4929586;29;19911;-84
2022/08/12 13:32:28;;;;;;;;;;;25.90;43.90;;;;;;4930564;29;19966;-85
2022/08/12 13:34:54;;;;;;;;;;;25.90;44.60;;;;;;4932459;29;20371;-85
2022/08/12 13:37:26;;;;;;;;;;;26.10;44.10;;;;;;4915981;29;19915;-85
2022/08/12 13:39:52;;;;;;;;;;;26.20;45.80;;;;;;4932778;29;19933;-85
2022/08/12 13:42:19;;;;;;;;;;;26.30;45.20;;;;;;4929421;29;20379;-85
2022/08/12 13:44:44;;;;;;;;;;;26.40;43.80;;;;;;4947842;28;19926;-85
2022/08/12 13:47:10;;;;;;;;;;;26.30;42.70;;;;;;4917487;29;19915;-85
2022/08/12 13:49:36;;;;;;;;;;;26.10;43.00;;;;;;4933595;28;20428;-85
2022/08/12 13:52:02;;;;;;;;;;;26.00;43.50;;;;;;4932141;29;20287;-85
2022/08/12 13:54:28;;;;;;;;;;;25.80;44.00;;;;;;4928403;29;19922;-85
2022/08/12 13:56:55;;;;;;;;;;;25.80;43.30;;;;;;4942666;29;19919;-84
2022/08/12 13:59:21;;;;;;;;;;;25.90;43.70;;;;;;4916275;29;19934;-84
2022/08/12 14:01:50;;;;;;;;;;;25.90;43.20;;;;;;4931323;29;19968;-85
2022/08/12 14:04:16;;;;;;;;;;;26.10;43.10;;;;;;4914440;29;20031;-85
2022/08/12 14:06:41;;;;;;;;;;;26.10;42.90;;;;;;4931374;29;19911;-86
2022/08/12 14:09:08;;;;;;;;;;;26.20;43.10;;;;;;4916004;29;20323;-85
2022/08/12 14:11:33;;;;;;;;;;;26.20;43.20;;;;;;4917656;29;20006;-85
2022/08/12 14:13:59;;;;;;;;;;;26.30;43.30;;;;;;4913290;29;20030;-87
2022/08/12 14:16:26;;;;;;;;;;;26.40;43.70;;;;;;4922582;29;19918;-85
2022/08/12 14:18:52;;;;;;;;;;;26.40;43.50;;;;;;4931840;29;20507;-85
2022/08/12 14:21:19;;;;;;;;;;;26.20;42.40;;;;;;4921094;29;19911;-84
2022/08/12 14:23:51;;;;;;;;;;;26.10;42.90;;;;;;4947625;28;20021;-85
2022/08/12 14:26:19;;;;;;;;;;;26.00;43.10;;;;;;4928256;29;19965;-84
2022/08/12 14:28:45;;;;;;;;;;;26.00;43.30;;;;;;4922242;29;20395;-85
2022/08/12 14:31:12;;;;;;;;;;;26.10;43.00;;;;;;4920086;29;19957;-84
2022/08/12 14:33:39;;;;;;;;;;;26.10;43.30;;;;;;4925206;29;19992;-85
2022/08/12 14:36:06;;;;;;;;;;;26.20;44.00;;;;;;4927180;29;19941;-84
2022/08/12 14:38:38;;;;;;;;;;;26.20;43.50;;;;;;4915360;29;19915;-87
2022/08/12 14:41:05;;;;;;;;;;;26.30;43.70;;;;;;4930768;29;19950;-85
2022/08/12 14:43:32;;;;;;;;;;;26.40;43.70;;;;;;4916086;29;19922;-84
2022/08/12 14:46:05;;;;;;;;;;;26.30;43.90;;;;;;4931686;29;19917;-84
2022/08/12 14:48:31;;;;;;;;;;;26.10;44.20;;;;;;4915595;29;19918;-83
2022/08/12 14:50:57;;;;;;;;;;;25.90;44.50;;;;;;4927326;29;19911;-85
2022/08/12 14:53:22;;;;;;;;;;;25.70;45.60;;;;;;4927860;29;19915;-85
2022/08/12 14:55:48;;;;;;;;;;;25.50;45.20;;;;;;4945864;28;19914;-85
2022/08/12 14:58:15;;;;;;;;;;;25.40;45.60;;;;;;4930769;29;19919;-85
2022/08/12 15:03:28;;;;;;;;;;;25.50;45.60;;;;;;4944704;29;19926;-86
2022/08/12 15:06:01;;;;;;;;;;;25.50;45.20;;;;;;4929758;29;19990;-84
2022/08/12 15:08:28;;;;;;;;;;;25.60;46.10;;;;;;4927408;29;20014;-85
2022/08/12 15:10:54;;;;;;;;;;;25.50;45.50;;;;;;4929756;29;19914;-85
2022/08/12 15:13:22;;;;;;;;;;;25.40;45.80;;;;;;4914969;29;19910;-85
2022/08/12 15:15:48;;;;;;;;;;;25.40;45.90;;;;;;4930108;29;19915;-87
2022/08/12 15:18:15;;;;;;;;;;;25.30;45.80;;;;;;4913936;29;19919;-86
2022/08/12 15:20:40;;;;;;;;;;;25.40;46.00;;;;;;4930730;29;19915;-85
2022/08/12 15:23:10;;;;;;;;;;;25.40;45.10;;;;;;4930237;29;20005;-84
2022/08/12 15:25:36;;;;;;;;;;;25.40;45.00;;;;;;4914043;29;20564;-85
2022/08/12 15:28:05;;;;;;;;;;;25.50;45.30;;;;;;4928304;29;19915;-84
2022/08/12 15:30:31;;;;;;;;;;;25.50;44.50;;;;;;4930357;29;19979;-84
2022/08/12 15:32:56;;;;;;;;;;;25.60;45.50;;;;;;4930283;29;19985;-86
2022/08/12 15:35:23;;;;;;;;;;;25.50;45.00;;;;;;4929150;29;20060;-86
2022/08/12 15:38:06;;;;;;;;;;;25.50;45.10;;;;;;4914599;29;19915;-86
2022/08/12 15:40:34;;;;;;;;;;;25.40;45.10;;;;;;4930191;29;19930;-85
2022/08/12 15:43:02;;;;;;;;;;;25.30;45.90;;;;;;4929946;29;20294;-85
2022/08/12 15:45:29;;;;;;;;;;;25.30;46.50;;;;;;4929565;29;19943;-86
2022/08/12 15:47:54;;;;;;;;;;;25.10;45.90;;;;;;4911588;29;19907;-85
2022/08/12 15:50:24;;;;;;;;;;;25.10;45.30;;;;;;4907309;29;19921;-86
2022/08/12 15:52:50;;;;;;;;;;;25.00;45.20;;;;;;4913771;29;19970;-85
2022/08/12 15:55:16;;;;;;;;;;;25.10;44.40;;;;;;4913704;29;20645;-86
2022/08/12 15:57:52;;;;;;;;;;;25.20;45.10;;;;;;4914405;29;19945;-84
2022/08/12 16:00:19;;;;;;;;;;;25.20;46.00;;;;;;4927939;29;20006;-85
2022/08/12 16:02:45;;;;;;;;;;;25.30;46.20;;;;;;4929284;29;19918;-84
2022/08/12 16:05:11;;;;;;;;;;;25.30;45.90;;;;;;4898155;29;19921;-86
2022/08/12 16:07:37;;;;;;;;;;;25.40;45.70;;;;;;4911157;29;20005;-85